createdAt,value
2023-02-25T00:03:23.626Z,19.3
2023-02-25T00:13:23.475Z,19.2
2023-02-25T00:23:24.060Z,19.3
2023-02-25T00:33:24.336Z,19.3
2023-02-25T00:43:24.936Z,19.2
2023-02-25T00:53:25.329Z,19.1
2023-02-25T01:03:25.948Z,19.3
2023-02-25T01:13:26.514Z,19.1
2023-02-25T01:23:26.783Z,19.1
2023-02-25T01:33:27.220Z,20.6
2023-02-25T01:43:27.251Z,19.1
2023-02-25T01:53:28.948Z,20.8
2023-02-25T02:03:32.645Z,19.1
2023-02-25T02:13:29.756Z,19.3
2023-02-25T02:23:30.876Z,19.4
2023-02-25T02:33:31.841Z,19.4
2023-02-25T02:43:33.038Z,20.9
2023-02-25T02:53:33.544Z,19.4
2023-02-25T03:03:06.837Z,19.1
2023-02-25T03:13:08.392Z,20.9
2023-02-25T03:23:08.820Z,20.9
2023-02-25T03:33:09.276Z,19.3
2023-02-25T03:43:09.842Z,19.1
2023-02-25T03:53:09.863Z,19.2
2023-02-25T04:03:11.892Z,19.1
2023-02-25T04:13:13.371Z,19.2
2023-02-25T04:23:15.417Z,19.1
2023-02-25T04:33:16.637Z,19.1
2023-02-25T04:43:19.036Z,19.1
2023-02-25T04:53:20.910Z,19.1
2023-02-25T05:03:21.520Z,19.1
2023-02-25T05:13:21.814Z,18.9
2023-02-25T05:23:22.126Z,20.6
2023-02-25T05:33:23.240Z,18.9
2023-02-25T05:43:23.289Z,19.1
2023-02-25T05:53:24.474Z,19.3
2023-02-25T06:03:26.119Z,19.5
2023-02-25T06:13:27.163Z,19.3
2023-02-25T06:23:27.609Z,19
2023-02-25T06:33:28.974Z,21
2023-02-25T06:43:29.750Z,19.5
2023-02-25T06:53:33.470Z,21.1
2023-02-25T07:03:42.116Z,23.3
2023-02-25T07:13:49.629Z,21.8
2023-02-25T07:23:54.621Z,20.9
2023-02-25T07:34:00.193Z,21.6
2023-02-25T07:44:05.540Z,22
2023-02-25T07:54:14.221Z,24.2
2023-02-25T08:04:29.552Z,24.4
2023-02-25T08:14:43.974Z,26.6
2023-02-25T08:24:57.860Z,21.4
2023-02-25T08:35:11.321Z,24.4
2023-02-25T08:45:23.836Z,26.1
2023-02-25T08:55:38.111Z,25.1
2023-02-25T09:03:08.988Z,24.1
2023-02-25T09:13:15.982Z,22.9
2023-02-25T09:23:18.706Z,21
2023-02-25T09:33:18.162Z,22.9
2023-02-25T09:43:19.901Z,21
2023-02-25T09:53:20.732Z,20.9
2023-02-25T10:03:23.638Z,20.8
2023-02-25T10:13:26.742Z,22.9
2023-02-25T10:23:29.595Z,22.4
2023-02-25T10:33:30.924Z,20.9
2023-02-25T10:43:31.720Z,20.7
2023-02-25T10:53:32.840Z,20.9
2023-02-25T11:03:34.119Z,20.8
2023-02-25T11:13:35.225Z,22.6
2023-02-25T11:23:35.002Z,20.8
2023-02-25T11:33:36.203Z,22.9
2023-02-25T11:43:35.863Z,20.6
2023-02-25T11:53:36.546Z,20.9
2023-02-25T12:03:37.167Z,20.9
2023-02-25T12:13:37.801Z,21.3
2023-02-25T12:23:38.962Z,21.3
2023-02-25T12:33:39.293Z,21.1
2023-02-25T12:43:39.224Z,21.2
2023-02-25T12:53:41.042Z,21.8
2023-02-25T13:03:44.112Z,22.7
2023-02-25T13:13:51.234Z,23.3
2023-02-25T13:23:55.180Z,22.9
2023-02-25T13:33:58.335Z,21.3
2023-02-25T13:43:59.608Z,23.4
2023-02-25T13:54:01.205Z,21.3
2023-02-25T14:04:02.467Z,21.2
2023-02-25T14:14:02.588Z,21.4
2023-02-25T14:24:02.504Z,21
2023-02-25T14:34:03.926Z,22.9
2023-02-25T14:44:04.269Z,21.4
2023-02-25T14:54:04.621Z,21.1
2023-02-25T15:03:07.095Z,21.4
2023-02-25T15:13:06.935Z,21.3
2023-02-25T15:23:07.102Z,21.2
2023-02-25T15:33:07.404Z,21.2
2023-02-25T15:43:07.423Z,21.1
2023-02-25T15:53:08.334Z,20.9
2023-02-25T16:03:14.423Z,22.9
2023-02-25T16:13:10.130Z,22.9
2023-02-25T16:23:13.254Z,20.9
2023-02-25T16:33:14.616Z,23.3
2023-02-25T16:43:17.537Z,21
2023-02-25T16:53:18.442Z,22.5
2023-02-25T17:03:20.527Z,23.2
2023-02-25T17:13:21.060Z,20.7
2023-02-25T17:23:21.072Z,20.8
2023-02-25T17:33:21.489Z,20.8
2023-02-25T17:43:21.199Z,20.6
2023-02-25T17:53:20.929Z,20.9
2023-02-25T18:03:21.097Z,20.9
2023-02-25T18:13:21.120Z,20.9
2023-02-25T18:23:21.563Z,20.6
2023-02-25T18:33:21.377Z,20.6
2023-02-25T18:43:21.804Z,20.5
2023-02-25T18:53:22.317Z,20.7
2023-02-25T19:03:23.299Z,20.6
2023-02-25T19:13:24.353Z,22.6
2023-02-25T19:23:24.291Z,20.8
2023-02-25T19:33:23.806Z,20.5
2023-02-25T19:43:25.256Z,22.6
2023-02-25T19:53:25.242Z,22.5
2023-02-25T20:03:25.601Z,22.8
2023-02-25T20:13:25.360Z,20.5
2023-02-25T20:23:26.034Z,20.7
2023-02-25T20:33:25.663Z,20.4
2023-02-25T20:43:27.184Z,20.7
2023-02-25T20:53:27.824Z,20.6
2023-02-25T21:03:08.903Z,20.8
2023-02-25T21:13:08.294Z,20.7
2023-02-25T21:23:09.385Z,20.7
2023-02-25T21:33:08.512Z,20.6
2023-02-25T21:43:08.126Z,20.7
2023-02-25T21:53:08.155Z,20.8
2023-02-25T22:03:09.337Z,20.8
2023-02-25T22:13:10.349Z,20.8
2023-02-25T22:23:11.622Z,20.8
2023-02-25T22:33:13.315Z,20.8
2023-02-25T22:43:14.825Z,22.7
2023-02-25T22:53:15.389Z,20.6
2023-02-25T23:03:16.439Z,20.6
2023-02-25T23:13:18.619Z,22.6
2023-02-25T23:23:17.874Z,20.6
2023-02-25T23:33:19.144Z,20.6
2023-02-25T23:43:19.207Z,20.8
2023-02-25T23:53:18.918Z,20.6
